createdAt,value
2023-03-06T00:01:31.067Z,5.53
2023-03-06T00:04:00.499Z,10.40
2023-03-06T00:06:30.386Z,8.25
2023-03-06T00:08:57.704Z,11.55
2023-03-06T00:11:34.025Z,9.90
2023-03-06T00:14:03.233Z,10.32
2023-03-06T00:16:30.975Z,12.40
2023-03-06T00:18:59.333Z,13.52
2023-03-06T00:21:33.583Z,12.65
2023-03-06T00:24:01.940Z,8.38
2023-03-06T00:26:29.379Z,12.95
2023-03-06T00:28:56.584Z,10.32
2023-03-06T00:31:23.990Z,10.32
2023-03-06T00:33:57.549Z,11.48
2023-03-06T00:36:32.931Z,8.82
2023-03-06T00:39:04.342Z,10.52
2023-03-06T00:41:31.574Z,11.63
2023-03-06T00:44:03.739Z,7.90
2023-03-06T00:46:30.907Z,9.70
2023-03-06T00:48:58.443Z,10.13
2023-03-06T00:51:27.831Z,10.90
2023-03-06T00:53:56.225Z,10.80
2023-03-06T00:56:25.328Z,10.98
2023-03-06T00:58:52.477Z,7.25
2023-03-06T01:01:20.103Z,12.32
2023-03-06T01:03:49.863Z,13.02
2023-03-06T01:06:17.768Z,9.35
2023-03-06T01:08:45.788Z,12.68
2023-03-06T01:11:13.493Z,9.35
2023-03-06T01:13:47.182Z,11.02
2023-03-06T01:16:16.050Z,11.02
2023-03-06T01:18:43.698Z,7.40
2023-03-06T01:21:11.079Z,11.52
2023-03-06T01:23:41.633Z,10.20
2023-03-06T01:26:10.010Z,13.30
2023-03-06T01:28:39.308Z,8.93
2023-03-06T01:31:07.140Z,14.07
2023-03-06T01:33:37.252Z,10.02
2023-03-06T01:36:09.585Z,13.32
2023-03-06T01:38:39.488Z,10.15
2023-03-06T01:41:11.015Z,14.30
2023-03-06T01:46:24.964Z,12.57
2023-03-06T01:49:15.120Z,10.55
2023-03-06T01:51:49.131Z,8.10
2023-03-06T01:54:21.646Z,12.88
2023-03-06T01:56:51.623Z,15.15
2023-03-06T01:59:19.444Z,4.10
2023-03-06T02:01:47.539Z,10.02
2023-03-06T02:04:18.041Z,10.70
2023-03-06T02:06:46.504Z,7.95
2023-03-06T02:09:14.456Z,10.55
2023-03-06T02:11:44.300Z,7.13
2023-03-06T02:14:13.403Z,10.73
2023-03-06T02:16:43.084Z,8.20
2023-03-06T02:19:18.959Z,9.02
2023-03-06T02:21:46.414Z,9.38
2023-03-06T02:24:35.605Z,10.68
2023-03-06T02:27:06.106Z,11.48
2023-03-06T02:29:33.642Z,12.90
2023-03-06T02:32:03.522Z,14.43
2023-03-06T02:34:31.950Z,11.60
2023-03-06T02:37:05.662Z,12.52
2023-03-06T02:39:34.695Z,14.05
2023-03-06T02:42:04.925Z,13.82
2023-03-06T02:44:35.359Z,16.45
2023-03-06T02:47:02.932Z,10.27
2023-03-06T02:49:31.220Z,11.65
2023-03-06T02:51:59.463Z,10.57
2023-03-06T02:54:27.040Z,13.88
2023-03-06T02:56:54.567Z,10.38
2023-03-06T02:59:21.745Z,11.43
2023-03-06T03:01:50.213Z,10.00
2023-03-06T03:04:17.471Z,14.57
2023-03-06T03:06:45.735Z,13.90
2023-03-06T03:09:14.174Z,12.43
2023-03-06T03:11:42.560Z,12.60
2023-03-06T03:14:10.437Z,14.70
2023-03-06T03:16:39.122Z,15.02
2023-03-06T03:19:12.486Z,13.05
2023-03-06T03:21:41.737Z,9.35
2023-03-06T03:24:10.298Z,14.18
2023-03-06T03:26:37.490Z,15.90
2023-03-06T03:29:07.455Z,11.57
2023-03-06T03:31:35.850Z,16.55
2023-03-06T03:34:04.172Z,9.20
2023-03-06T03:36:37.445Z,10.50
2023-03-06T03:39:05.155Z,20.45
2023-03-06T03:41:33.360Z,10.15
2023-03-06T03:44:00.840Z,8.15
2023-03-06T03:46:30.273Z,12.75
2023-03-06T03:48:58.597Z,7.97
2023-03-06T03:51:25.713Z,13.55
2023-03-06T03:53:56.878Z,13.30
2023-03-06T03:56:30.941Z,10.05
2023-03-06T03:58:58.465Z,10.15
2023-03-06T04:01:25.628Z,11.13
2023-03-06T04:03:52.821Z,15.63
2023-03-06T04:06:20.651Z,12.48
2023-03-06T04:08:47.852Z,9.35
2023-03-06T04:11:16.161Z,15.35
2023-03-06T04:13:45.990Z,13.40
2023-03-06T04:16:13.570Z,13.38
2023-03-06T04:18:41.829Z,16.27
2023-03-06T04:21:09.317Z,14.15
2023-03-06T04:23:36.392Z,22.60
2023-03-06T04:26:03.934Z,13.07
2023-03-06T04:28:31.437Z,9.95
2023-03-06T04:30:58.603Z,12.52
2023-03-06T04:33:25.740Z,11.18
2023-03-06T04:35:53.132Z,17.42
2023-03-06T04:38:22.800Z,11.55
2023-03-06T04:40:58.393Z,16.48
2023-03-06T04:43:28.110Z,10.98
2023-03-06T04:45:55.426Z,13.98
2023-03-06T04:48:22.750Z,9.18
2023-03-06T04:50:49.920Z,6.75
2023-03-06T04:53:19.617Z,15.05
2023-03-06T04:55:46.958Z,12.32
2023-03-06T04:58:17.444Z,12.68
2023-03-06T05:00:44.675Z,12.53
2023-03-06T05:03:12.751Z,10.00
2023-03-06T05:05:39.873Z,10.82
2023-03-06T05:08:07.533Z,11.80
2023-03-06T05:10:34.682Z,9.90
2023-03-06T05:13:01.877Z,12.98
2023-03-06T05:15:30.246Z,9.65
2023-03-06T05:17:57.614Z,11.00
2023-03-06T05:20:28.721Z,13.68
2023-03-06T05:22:56.238Z,11.02
2023-03-06T05:25:23.572Z,14.93
2023-03-06T05:27:51.176Z,17.38
2023-03-06T05:30:21.201Z,10.00
2023-03-06T05:32:48.584Z,12.50
2023-03-06T05:35:20.484Z,12.50
2023-03-06T05:37:48.137Z,12.70
2023-03-06T05:40:16.256Z,8.45
2023-03-06T05:42:44.678Z,9.73
2023-03-06T05:45:12.355Z,15.27
2023-03-06T05:47:39.653Z,15.00
2023-03-06T05:50:08.395Z,16.05
2023-03-06T05:52:35.657Z,17.60
2023-03-06T05:55:04.047Z,10.93
2023-03-06T05:57:31.235Z,15.68
2023-03-06T05:59:58.380Z,16.08
2023-03-06T06:02:25.763Z,13.45
2023-03-06T06:04:53.006Z,15.60
2023-03-06T06:07:20.356Z,16.15
2023-03-06T06:09:53.598Z,13.80
2023-03-06T06:12:23.976Z,21.70
2023-03-06T06:14:51.466Z,10.70
2023-03-06T06:17:21.083Z,13.90
2023-03-06T06:19:49.699Z,14.23
2023-03-06T06:22:17.172Z,8.50
2023-03-06T06:24:45.503Z,14.68
2023-03-06T06:27:12.710Z,10.13
2023-03-06T06:29:42.950Z,13.05
2023-03-06T06:32:10.151Z,12.68
2023-03-06T06:34:37.521Z,7.47
2023-03-06T06:37:11.886Z,10.57
2023-03-06T06:39:39.274Z,9.60
2023-03-06T06:42:30.211Z,9.95
2023-03-06T06:44:57.231Z,11.30
2023-03-06T06:47:25.574Z,13.80
2023-03-06T06:49:53.907Z,14.23
2023-03-06T06:52:27.179Z,17.10
2023-03-06T06:54:54.414Z,15.95
2023-03-06T06:57:22.897Z,16.98
2023-03-06T06:59:52.411Z,13.40
2023-03-06T07:02:21.155Z,17.33
2023-03-06T07:05:03.166Z,13.13
2023-03-06T07:07:39.052Z,15.05
2023-03-06T07:10:08.085Z,13.00
2023-03-06T07:12:37.477Z,13.85
2023-03-06T07:15:07.137Z,20.23
2023-03-06T07:17:34.624Z,17.83
2023-03-06T07:20:02.145Z,16.20
2023-03-06T07:22:35.856Z,16.13
2023-03-06T07:25:10.229Z,14.88
2023-03-06T07:27:37.503Z,13.50
2023-03-06T07:30:05.146Z,16.25
2023-03-06T07:32:32.327Z,12.65
2023-03-06T07:35:19.467Z,17.83
2023-03-06T07:37:53.593Z,17.63
2023-03-06T07:40:23.958Z,16.48
2023-03-06T07:42:53.577Z,7.15
2023-03-06T07:45:20.776Z,18.42
2023-03-06T07:47:48.013Z,20.50
2023-03-06T07:50:15.316Z,17.77
2023-03-06T07:52:42.449Z,16.98
2023-03-06T07:55:11.648Z,21.90
2023-03-06T07:57:38.972Z,18.50
2023-03-06T08:00:13.098Z,17.25
2023-03-06T08:02:42.684Z,15.27
2023-03-06T08:05:13.335Z,18.40
2023-03-06T08:07:40.538Z,20.35
2023-03-06T08:10:08.126Z,17.20
2023-03-06T08:12:35.459Z,19.20
2023-03-06T08:15:04.972Z,18.88
2023-03-06T08:17:32.375Z,13.93
2023-03-06T08:19:59.571Z,13.20
2023-03-06T08:22:27.024Z,15.63
2023-03-06T08:24:58.803Z,17.45
2023-03-06T08:27:26.165Z,10.95
2023-03-06T08:29:53.440Z,14.88
2023-03-06T08:32:20.816Z,14.95
2023-03-06T08:34:48.052Z,14.13
2023-03-06T08:37:15.454Z,14.23
2023-03-06T08:39:42.769Z,13.15
2023-03-06T08:42:11.076Z,12.93
2023-03-06T08:44:39.373Z,10.73
2023-03-06T08:47:06.599Z,13.82
2023-03-06T08:49:33.789Z,10.30
2023-03-06T08:52:01.391Z,11.50
2023-03-06T08:54:28.740Z,11.30
2023-03-06T08:56:56.137Z,7.25
2023-03-06T08:59:25.090Z,10.35
2023-03-06T09:01:52.440Z,7.55
2023-03-06T09:04:19.879Z,7.43
2023-03-06T09:06:48.096Z,9.98
2023-03-06T09:09:15.409Z,6.65
2023-03-06T09:11:42.971Z,10.70
2023-03-06T09:14:10.489Z,7.45
2023-03-06T09:16:37.674Z,11.77
2023-03-06T09:19:04.958Z,13.70
2023-03-06T09:21:32.473Z,9.82
2023-03-06T09:24:00.421Z,6.50
2023-03-06T09:26:43.323Z,3.50
2023-03-06T09:29:12.870Z,7.40
2023-03-06T09:31:40.066Z,7.32
2023-03-06T09:34:07.124Z,9.43
2023-03-06T09:36:49.325Z,6.07
2023-03-06T09:39:21.692Z,7.90
2023-03-06T09:41:50.374Z,5.70
2023-03-06T09:44:19.847Z,9.13
2023-03-06T09:46:59.436Z,6.50
2023-03-06T09:49:26.532Z,7.03
2023-03-06T09:52:01.049Z,9.73
2023-03-06T09:54:35.139Z,8.02
2023-03-06T09:57:03.547Z,6.55
2023-03-06T09:59:32.128Z,9.68
2023-03-06T10:02:12.027Z,10.68
2023-03-06T10:04:42.279Z,7.88
2023-03-06T10:07:16.517Z,6.38
2023-03-06T10:10:04.111Z,6.35
2023-03-06T10:12:41.889Z,6.53
2023-03-06T10:15:15.304Z,10.02
2023-03-06T10:17:42.989Z,7.07
2023-03-06T10:20:30.670Z,10.63
2023-03-06T10:23:01.285Z,8.52
2023-03-06T10:25:30.642Z,7.82
2023-03-06T10:27:58.813Z,10.15
2023-03-06T10:30:34.402Z,10.55
2023-03-06T10:33:27.852Z,10.00
2023-03-06T10:35:55.779Z,11.93
2023-03-06T10:38:25.114Z,8.82
2023-03-06T10:40:57.284Z,11.63
2023-03-06T10:43:24.631Z,10.43
2023-03-06T10:45:53.802Z,10.93
2023-03-06T10:48:22.569Z,11.43
2023-03-06T10:50:50.284Z,12.15
2023-03-06T10:53:23.084Z,12.25
2023-03-06T10:55:54.622Z,11.50
2023-03-06T10:58:26.569Z,13.55
2023-03-06T11:01:07.964Z,14.10
2023-03-06T11:03:36.239Z,15.25
2023-03-06T11:06:13.034Z,11.32
2023-03-06T11:08:43.153Z,11.60
2023-03-06T11:11:22.421Z,9.30
2023-03-06T11:13:59.415Z,8.30
2023-03-06T11:16:30.808Z,10.73
2023-03-06T11:19:03.975Z,11.10
2023-03-06T11:21:33.000Z,11.50
2023-03-06T11:24:19.061Z,9.80
2023-03-06T11:26:55.046Z,8.77
2023-03-06T11:29:28.508Z,10.18
2023-03-06T11:32:15.485Z,10.13
2023-03-06T11:34:50.666Z,7.50
2023-03-06T11:37:33.179Z,8.77
2023-03-06T11:40:05.836Z,7.65
2023-03-06T11:42:35.108Z,6.32
2023-03-06T11:45:11.249Z,6.68
2023-03-06T11:47:41.134Z,6.45
2023-03-06T11:50:10.815Z,7.13
2023-03-06T11:52:38.340Z,6.80
2023-03-06T11:55:05.791Z,9.05
2023-03-06T11:57:40.714Z,6.80
2023-03-06T12:00:08.237Z,5.60
2023-03-06T12:02:50.309Z,6.07
2023-03-06T12:05:36.134Z,6.28
2023-03-06T12:08:16.334Z,4.53
2023-03-06T12:10:51.823Z,7.07
2023-03-06T12:13:38.349Z,6.80
2023-03-06T12:16:19.112Z,7.85
2023-03-06T12:19:05.214Z,7.88
2023-03-06T12:21:32.555Z,4.65
2023-03-06T12:24:06.003Z,8.63
2023-03-06T12:26:44.068Z,8.82
2023-03-06T12:29:30.746Z,10.60
2023-03-06T12:32:08.763Z,9.45
2023-03-06T12:34:59.655Z,12.38
2023-03-06T12:37:35.861Z,9.00
2023-03-06T12:40:18.106Z,6.70
2023-03-06T12:42:48.769Z,11.50
2023-03-06T12:45:35.219Z,6.18
2023-03-06T12:48:02.663Z,8.57
2023-03-06T12:50:32.051Z,11.10
2023-03-06T12:53:04.163Z,7.75
2023-03-06T12:55:37.172Z,6.45
2023-03-06T12:58:22.980Z,8.55
2023-03-06T13:01:09.186Z,5.07
2023-03-06T13:03:55.110Z,8.02
2023-03-06T13:06:54.245Z,12.68
2023-03-06T13:09:30.677Z,11.82
2023-03-06T13:12:10.010Z,8.15
2023-03-06T13:14:48.772Z,9.23
2023-03-06T13:17:21.873Z,6.65
2023-03-06T13:19:49.768Z,9.20
2023-03-06T13:22:23.995Z,10.10
2023-03-06T13:25:11.031Z,9.25
2023-03-06T13:27:47.287Z,11.85
2023-03-06T13:30:22.057Z,6.75
2023-03-06T13:32:49.826Z,6.78
2023-03-06T13:35:35.901Z,10.77
2023-03-06T13:38:03.206Z,8.98
2023-03-06T13:40:35.297Z,9.40
2023-03-06T13:43:08.254Z,9.95
2023-03-06T13:45:43.393Z,9.63
2023-03-06T13:48:43.173Z,6.22
2023-03-06T13:51:23.132Z,10.27
2023-03-06T13:54:01.385Z,9.68
2023-03-06T13:56:41.267Z,10.45
2023-03-06T13:59:26.710Z,8.73
2023-03-06T14:02:12.565Z,9.25
2023-03-06T14:04:58.709Z,7.97
2023-03-06T14:07:29.359Z,5.97
2023-03-06T14:10:10.737Z,10.43
2023-03-06T14:15:23.560Z,10.40
2023-03-06T14:18:02.068Z,11.88
2023-03-06T14:20:45.405Z,5.47
2023-03-06T14:23:25.546Z,13.25
2023-03-06T14:26:19.669Z,19.98
2023-03-06T14:28:53.128Z,15.43
2023-03-06T14:31:21.924Z,10.02
2023-03-06T14:33:59.608Z,15.63
2023-03-06T14:36:30.316Z,10.43
2023-03-06T14:39:06.785Z,18.02
2023-03-06T14:41:35.490Z,18.02
2023-03-06T14:44:10.274Z,7.88
2023-03-06T14:46:37.530Z,14.30
2023-03-06T14:49:08.836Z,15.40
2023-03-06T14:51:43.047Z,12.65
2023-03-06T14:54:14.994Z,16.02
2023-03-06T14:56:45.984Z,12.27
2023-03-06T14:59:16.426Z,15.60
2023-03-06T15:01:48.675Z,11.77
2023-03-06T15:04:21.850Z,16.83
2023-03-06T15:06:49.377Z,10.93
2023-03-06T15:09:24.325Z,14.93
2023-03-06T15:12:14.925Z,20.83
2023-03-06T15:14:43.875Z,13.85
2023-03-06T15:17:20.450Z,19.52
2023-03-06T15:19:49.998Z,17.63
2023-03-06T15:22:25.339Z,15.77
2023-03-06T15:24:53.346Z,21.90
2023-03-06T15:27:26.973Z,14.93
2023-03-06T15:29:55.577Z,15.88
2023-03-06T15:32:25.579Z,17.20
2023-03-06T15:35:14.196Z,15.52
2023-03-06T15:37:41.303Z,8.95
2023-03-06T15:40:09.389Z,15.10
2023-03-06T15:42:36.911Z,16.67
2023-03-06T15:45:23.583Z,12.43
2023-03-06T15:47:51.921Z,15.55
2023-03-06T15:50:22.420Z,9.43
2023-03-06T15:52:51.088Z,11.35
2023-03-06T15:55:19.991Z,12.10
2023-03-06T15:57:58.725Z,15.20
2023-03-06T16:00:30.224Z,12.45
2023-03-06T16:05:26.825Z,9.25
2023-03-06T16:07:55.240Z,12.45
2023-03-06T16:10:23.476Z,10.38
2023-03-06T16:12:52.620Z,9.18
2023-03-06T16:15:25.296Z,12.48
2023-03-06T16:17:52.593Z,15.80
2023-03-06T16:20:21.652Z,10.48
2023-03-06T16:22:51.252Z,16.30
2023-03-06T16:25:19.565Z,17.88
2023-03-06T16:27:58.004Z,19.73
2023-03-06T16:30:29.595Z,13.73
2023-03-06T16:32:57.405Z,13.35
2023-03-06T16:35:26.024Z,19.23
2023-03-06T16:37:53.364Z,13.18
2023-03-06T16:40:38.363Z,16.75
2023-03-06T16:43:05.820Z,15.02
2023-03-06T16:45:36.102Z,13.93
2023-03-06T16:48:04.534Z,16.98
2023-03-06T16:50:37.815Z,14.35
2023-03-06T16:53:05.732Z,13.45
2023-03-06T16:55:34.240Z,9.57
2023-03-06T16:58:01.709Z,23.73
2023-03-06T17:00:31.887Z,13.38
2023-03-06T17:03:00.822Z,14.73
2023-03-06T17:05:29.369Z,19.48
2023-03-06T17:07:56.849Z,15.10
2023-03-06T17:10:26.352Z,14.90
2023-03-06T17:12:55.118Z,14.23
2023-03-06T17:15:22.478Z,16.95
2023-03-06T17:17:51.539Z,22.58
2023-03-06T17:20:19.175Z,20.30
2023-03-06T17:22:46.574Z,15.68
2023-03-06T17:25:13.793Z,21.33
2023-03-06T17:27:41.006Z,15.38
2023-03-06T17:30:08.566Z,21.67
2023-03-06T17:32:38.300Z,21.40
2023-03-06T17:35:05.653Z,27.52
2023-03-06T17:37:33.027Z,18.77
2023-03-06T17:40:00.378Z,18.38
2023-03-06T17:42:27.592Z,22.63
2023-03-06T17:44:54.752Z,19.90
2023-03-06T17:47:21.836Z,27.95
2023-03-06T17:49:48.953Z,21.67
2023-03-06T17:52:16.228Z,24.25
2023-03-06T17:54:48.805Z,29.52
2023-03-06T17:57:16.942Z,25.85
2023-03-06T17:59:48.449Z,26.58
2023-03-06T18:02:16.204Z,28.63
2023-03-06T18:04:43.570Z,34.35
2023-03-06T18:07:11.134Z,34.22
2023-03-06T18:09:38.559Z,34.97
2023-03-06T18:12:05.796Z,22.70
2023-03-06T18:14:33.160Z,34.25
2023-03-06T18:17:00.600Z,33.35
2023-03-06T18:19:27.692Z,30.33
2023-03-06T18:21:54.944Z,28.38
2023-03-06T18:24:22.336Z,32.35
2023-03-06T18:26:52.936Z,30.27
2023-03-06T18:29:20.448Z,32.42
2023-03-06T18:31:49.971Z,39.35
2023-03-06T18:34:20.385Z,34.65
2023-03-06T18:36:48.435Z,32.50
2023-03-06T18:39:16.015Z,29.23
2023-03-06T18:41:44.346Z,35.75
2023-03-06T18:44:18.925Z,31.92
2023-03-06T18:46:46.402Z,33.03
2023-03-06T18:49:15.375Z,24.98
2023-03-06T18:51:44.987Z,30.25
2023-03-06T18:54:13.396Z,37.38
2023-03-06T18:56:44.075Z,30.13
2023-03-06T18:59:16.425Z,26.13
2023-03-06T19:01:45.841Z,30.90
2023-03-06T19:04:13.001Z,27.88
2023-03-06T19:06:40.750Z,11.95
2023-03-06T19:09:08.922Z,24.73
2023-03-06T19:11:36.331Z,38.13
2023-03-06T19:14:05.486Z,32.03
2023-03-06T19:16:33.896Z,24.23
2023-03-06T19:19:01.117Z,39.05
2023-03-06T19:21:29.200Z,39.05
2023-03-06T19:23:56.727Z,37.28
2023-03-06T19:26:30.077Z,34.63
2023-03-06T19:28:57.367Z,25.40
2023-03-06T19:31:26.976Z,34.80
2023-03-06T19:33:55.007Z,23.92
2023-03-06T19:36:27.692Z,34.03
2023-03-06T19:38:59.434Z,27.38
2023-03-06T19:41:27.847Z,19.35
2023-03-06T19:43:58.309Z,15.15
2023-03-06T19:46:26.539Z,23.67
2023-03-06T19:48:57.607Z,13.63
2023-03-06T19:51:25.135Z,21.83
2023-03-06T19:53:52.644Z,23.10
2023-03-06T19:56:23.806Z,23.38
2023-03-06T19:58:51.717Z,23.30
2023-03-06T20:01:20.278Z,21.45
2023-03-06T20:03:50.516Z,14.55
2023-03-06T20:06:20.320Z,18.60
2023-03-06T20:08:48.410Z,16.85
2023-03-06T20:11:16.964Z,19.65
2023-03-06T20:13:47.460Z,16.63
2023-03-06T20:16:15.383Z,15.60
2023-03-06T20:18:42.752Z,19.58
2023-03-06T20:21:12.278Z,12.90
2023-03-06T20:23:39.598Z,19.42
2023-03-06T20:26:09.486Z,20.48
2023-03-06T20:28:38.093Z,16.63
2023-03-06T20:31:07.518Z,11.68
2023-03-06T20:33:35.917Z,15.05
2023-03-06T20:36:03.486Z,5.95
2023-03-06T20:38:30.771Z,6.70
2023-03-06T20:40:59.738Z,4.78
2023-03-06T20:43:27.954Z,9.70
2023-03-06T20:45:59.548Z,4.03
2023-03-06T20:48:26.793Z,3.90
2023-03-06T20:51:01.149Z,2.00
2023-03-06T20:53:30.598Z,2.30
2023-03-06T20:55:57.920Z,1.20
2023-03-06T20:58:28.659Z,2.17
2023-03-06T21:00:56.356Z,2.72
2023-03-06T21:03:25.478Z,5.18
2023-03-06T21:05:52.632Z,2.78
2023-03-06T21:08:20.012Z,2.08
2023-03-06T21:10:48.736Z,2.83
2023-03-06T21:13:17.199Z,3.63
2023-03-06T21:15:47.519Z,3.38
2023-03-06T21:18:15.060Z,2.33
2023-03-06T21:20:43.397Z,3.20
2023-03-06T21:23:10.497Z,3.03
2023-03-06T21:25:37.657Z,3.28
2023-03-06T21:28:05.152Z,5.47
2023-03-06T21:30:32.358Z,5.95
2023-03-06T21:32:59.839Z,4.25
2023-03-06T21:35:27.189Z,2.15
2023-03-06T21:37:54.523Z,4.55
2023-03-06T21:40:21.851Z,3.88
2023-03-06T21:42:50.083Z,3.53
2023-03-06T21:45:17.502Z,4.07
2023-03-06T21:47:44.621Z,6.10
2023-03-06T21:50:12.151Z,3.70
2023-03-06T21:52:39.576Z,6.40
2023-03-06T21:55:08.473Z,6.00
2023-03-06T21:57:35.822Z,3.95
2023-03-06T22:00:08.469Z,3.08
2023-03-06T22:02:36.015Z,4.30
2023-03-06T22:05:03.552Z,5.40
2023-03-06T22:07:34.877Z,6.18
2023-03-06T22:10:02.105Z,4.80
2023-03-06T22:12:29.321Z,7.20
2023-03-06T22:14:56.746Z,4.68
2023-03-06T22:17:23.831Z,4.57
2023-03-06T22:19:52.150Z,9.13
2023-03-06T22:22:19.509Z,5.00
2023-03-06T22:24:48.503Z,7.13
2023-03-06T22:27:16.526Z,7.20
2023-03-06T22:29:46.173Z,3.60
2023-03-06T22:32:15.946Z,3.70
2023-03-06T22:34:43.131Z,8.70
2023-03-06T22:37:10.440Z,4.93
2023-03-06T22:39:37.810Z,4.10
2023-03-06T22:42:06.316Z,2.38
2023-03-06T22:44:33.412Z,4.75
2023-03-06T22:47:00.518Z,4.85
2023-03-06T22:49:28.821Z,5.50
2023-03-06T22:51:56.158Z,11.00
2023-03-06T22:54:23.506Z,11.90
2023-03-06T22:56:52.699Z,4.32
2023-03-06T22:59:20.092Z,8.98
2023-03-06T23:01:47.420Z,2.97
2023-03-06T23:04:14.931Z,5.00
2023-03-06T23:06:45.586Z,10.05
2023-03-06T23:09:15.164Z,6.35
2023-03-06T23:11:42.559Z,9.20
2023-03-06T23:14:12.241Z,2.70
2023-03-06T23:16:39.686Z,4.30
2023-03-06T23:19:07.294Z,18.63
2023-03-06T23:21:34.699Z,15.00
2023-03-06T23:24:02.531Z,10.10
2023-03-06T23:26:30.710Z,10.95
2023-03-06T23:28:58.621Z,7.18
2023-03-06T23:31:31.136Z,15.18
2023-03-06T23:34:01.511Z,11.50
2023-03-06T23:36:29.775Z,5.78
2023-03-06T23:38:56.895Z,10.10
2023-03-06T23:41:24.872Z,7.28
2023-03-06T23:43:54.960Z,8.68
2023-03-06T23:46:24.909Z,13.45
2023-03-06T23:48:54.859Z,14.13
2023-03-06T23:51:23.073Z,6.40
2023-03-06T23:53:54.723Z,7.78
2023-03-06T23:56:24.004Z,8.90
2023-03-06T23:58:51.080Z,5.75
